Flight Track Log - Related Links

Times and Time Zones

All times are in EDT time to prevent confusion due to time zone crossing. See the AAL2428 flight status page for this flight to view local times or setup timezone preferences in your user account.

Time Position Orientation Groundspeed Altitude Reporting Facility
EDT Latitude Longitude Course Direction KTS MPH feet Rate Location/Type
Fri 11:35:52 AM 33.9170 -118.4620 231° Southwest 217 250 1,700  Level FlightAware ADS-B
Fri 11:36:12 AM 33.9030 -118.4810 228° Southwest 238 274 2,300 1,650 Climbing FlightAware ADS-B
Fri 11:36:32 AM 33.8900 -118.5020 233° Southwest 266 306 2,800 2,640 Climbing FlightAware ADS-B
Fri 11:37:02 AM 33.8640 -118.5400 231° Southwest 279 321 4,500 3,200 Climbing FlightAware ADS-B
Fri 11:37:17 AM 33.8500 -118.5530 218° Southwest 283 326 5,200 2,880 Climbing FlightAware ADS-B
Fri 11:37:27 AM 33.8360 -118.5590 200° South 287 330 5,700 2,880 Climbing FlightAware ADS-B
Fri 11:37:42 AM 33.8170 -118.5580 177° South 287 330 6,400 3,067 Climbing FlightAware ADS-B
Fri 11:38:12 AM 33.7770 -118.5470 167° South 295 339 8,000 3,200 Climbing FlightAware ADS-B
Fri 11:38:27 AM 33.7590 -118.5430 170° South 298 343 8,800 3,382 Climbing FlightAware ADS-B
Fri 11:39:07 AM 33.7020 -118.5250 165° South 303 349 11,100 3,273 Climbing FlightAware ADS-B
Fri 11:39:22 AM 33.6870 -118.5090 138° Southeast 298 343 11,800 2,250 Climbing FlightAware ADS-B
Fri 11:39:47 AM 33.6660 -118.4740 126° Southeast 305 351 12,600 943 Climbing FlightAware ADS-B
Fri 11:40:32 AM 33.6180 -118.4240 139° Southeast 317 365 12,900 257 Climbing FlightAware ADS-B
Fri 11:40:57 AM 33.5940 -118.3880 129° Southeast 337 388 12,900  Level FlightAware ADS-B
Fri 11:41:12 AM 33.5880 -118.3630 106° East 334 384 12,900 1,300 Level FlightAware ADS-B
Fri 11:41:57 AM 33.5860 -118.2770 92° East 338 389 14,200 2,188 Climbing FlightAware ADS-B
Fri 11:42:37 AM 33.5870 -118.2030 89° East 355 409 16,000 2,850 Climbing FlightAware ADS-B
Fri 11:43:17 AM 33.5880 -118.1200 89° East 366 421 18,000 2,682 Climbing FlightAware ADS-B
Fri 11:44:02 AM 33.5910 -118.0300 88° East 386 444 19,800 2,259 Climbing FlightAware ADS-B
Fri 11:44:42 AM 33.5930 -117.9410 88° East 404 465 21,200 2,250 Climbing FlightAware ADS-B
Fri 11:45:22 AM 33.5950 -117.8510 88° East 414 476 22,800 2,047 Climbing FlightAware ADS-B
Fri 11:46:07 AM 33.5970 -117.7430 89° East 437 503 24,100 1,976 Climbing FlightAware ADS-B
Fri 11:46:47 AM 33.5990 -117.6450 89° East 445 512 25,600 2,118 Climbing FlightAware ADS-B
Fri 11:47:32 AM 33.6010 -117.5370 89° East 454 522 27,100 1,976 Climbing FlightAware ADS-B
Fri 11:48:12 AM 33.6030 -117.4330 89° East 460 529 28,400 1,341 Climbing FlightAware ADS-B
Fri 11:48:57 AM 33.6050 -117.3150 89° East 469 540 29,000 424 Climbing FlightAware ADS-B
Fri 11:49:37 AM 33.6070 -117.2140 89° East 463 533 29,000  Level FlightAware ADS-B
Fri 11:50:17 AM 33.6090 -117.1100 89° East 459 528 29,000  Level FlightAware ADS-B
Fri 11:51:02 AM 33.6110 -117.0080 89° East 462 532 29,000 494 Level FlightAware ADS-B
Fri 11:51:42 AM 33.6120 -116.8970 89° East 464 534 29,700 1,765 Climbing FlightAware ADS-B
Fri 11:52:27 AM 33.6140 -116.7800 89° East 454 522 31,500 2,259 Climbing FlightAware ADS-B
Fri 11:53:07 AM 33.6150 -116.6790 89° East 451 519 32,900 1,280 Climbing FlightAware ADS-B
Fri 11:53:42 AM 33.6160 -116.5930 89° East 454 522 33,100 706 Climbing FlightAware ADS-B
Fri 11:54:32 AM 33.6180 -116.4690 89° East 461 531 33,900 1,133 Climbing FlightAware ADS-B
Fri 11:55:12 AM 33.6190 -116.3640 89° East 464 534 34,800 1,533 Climbing FlightAware ADS-B
Fri 11:56:02 AM 33.6200 -116.2450 89° East 441 507 36,200 1,389 Climbing FlightAware ADS-B
Fri 11:56:47 AM 33.6210 -116.1400 89° East 439 505 37,000 533 Climbing FlightAware ADS-B
Fri 11:57:32 AM 33.6220 -116.0400 89° East 439 505 37,000  Level FlightAware ADS-B
Fri 11:58:12 AM 33.6240 -115.9570 88° East 439 505 37,000  Level FlightAware ADS-B
Fri 11:58:52 AM 33.6250 -115.8740 89° East 439 505 37,000  Level FlightAware ADS-B
Fri 11:59:32 AM 33.6260 -115.7910 89° East 439 505 37,000  Level FlightAware ADS-B
Fri 12:00:22 PM 33.6100 -115.5950 96° East 469 540 37,000  Level FlightAware ADS-B
Fri 12:01:17 PM 33.6070 -115.4560 91° East 465 535 37,000  Level FlightAware ADS-B
Fri 12:01:57 PM 33.6060 -115.3690 91° East 465 535 37,000  Level FlightAware ADS-B
Fri 12:02:37 PM 33.6050 -115.2810 91° East 465 535 37,000  Level FlightAware ADS-B
Fri 12:03:17 PM 33.6040 -115.1930 91° East 465 535 37,000  Level FlightAware ADS-B
Fri 12:03:57 PM 33.6020 -115.1050 92° East 465 535 37,000  Level FlightAware ADS-B
Fri 12:04:47 PM 33.6010 -114.9950 91° East 465 535 37,000  Level FlightAware ADS-B
Fri 12:05:27 PM 33.5990 -114.9080 92° East 465 535 37,000  Level FlightAware ADS-B
Fri 12:06:07 PM 33.5980 -114.8200 91° East 465 535 37,000  Level FlightAware ADS-B
Fri 12:06:47 PM 33.5970 -114.7320 91° East 465 535 37,000  Level FlightAware ADS-B
Fri 12:07:37 PM 33.5950 -114.6220 91° East 465 535 37,000  Level FlightAware ADS-B
Fri 12:08:17 PM 33.5940 -114.5350 91° East 465 535 37,000  Level FlightAware ADS-B
Fri 12:08:57 PM 33.5930 -114.4470 91° East 465 535 37,000  Level FlightAware ADS-B
Fri 12:09:37 PM 33.5910 -114.3590 92° East 465 535 37,000  Level FlightAware ADS-B
Fri 12:10:22 PM 33.5230 -114.0500 105° East 463 533 37,000  Level FlightAware ADS-B
Fri 12:11:07 PM 33.5130 -113.9380 96° East 462 532 37,000  Level FlightAware ADS-B
Fri 12:11:47 PM 33.5030 -113.8370 97° East 461 531 37,000  Level FlightAware ADS-B
Fri 12:12:27 PM 33.4930 -113.7340 97° East 459 528 37,000  Level FlightAware ADS-B
Fri 12:13:12 PM 33.4810 -113.6190 97° East 458 527 37,000  Level FlightAware ADS-B
Fri 12:13:52 PM 33.4710 -113.5200 97° East 457 526 37,000  Level FlightAware ADS-B
Fri 12:14:37 PM 33.4600 -113.4100 97° East 458 527 37,000  Level FlightAware ADS-B
Fri 12:15:52 PM 33.4510 -113.2220 93° East 455 524 37,000  Level FlightAware ADS-B
Fri 12:16:32 PM 33.4490 -113.1160 91° East 455 524 37,000  Level FlightAware ADS-B
Fri 12:17:57 PM 33.4440 -112.9050 92° East 456 525 37,000  Level FlightAware ADS-B
Fri 12:18:37 PM 33.4420 -112.8050 91° East 457 526 37,000  Level FlightAware ADS-B
Fri 12:19:22 PM 33.4390 -112.6880 92° East 459 528 37,000  Level FlightAware ADS-B
Fri 12:20:02 PM 33.4360 -112.5860 92° East 460 529 37,000  Level FlightAware ADS-B
Fri 12:20:42 PM 33.4330 -112.4850 92° East 462 532 37,000  Level FlightAware ADS-B
Fri 12:21:27 PM 33.4300 -112.3730 92° East 464 534 37,000  Level FlightAware ADS-B
Fri 12:22:07 PM 33.4270 -112.2690 92° East 465 535 37,000  Level FlightAware ADS-B
Fri 12:22:47 PM 33.4240 -112.1680 92° East 466 536 37,000  Level FlightAware ADS-B
Fri 12:23:32 PM 33.4200 -112.0480 92° East 467 537 37,000  Level FlightAware ADS-B
Fri 12:24:12 PM 33.4280 -111.9490 84° East 460 529 37,000  Level FlightAware ADS-B
Fri 12:24:57 PM 33.4620 -111.8420 69° East 458 527 37,000  Level FlightAware ADS-B
Fri 12:25:37 PM 33.4960 -111.7510 66° East 459 528 37,000  Level FlightAware ADS-B
Fri 12:26:17 PM 33.5290 -111.6590 67° East 459 528 37,000  Level FlightAware ADS-B
Fri 12:27:02 PM 33.5670 -111.5530 67° East 459 528 37,000  Level FlightAware ADS-B
Fri 12:27:42 PM 33.6020 -111.4560 67° East 458 527 37,000  Level FlightAware ADS-B
Fri 12:28:27 PM 33.6380 -111.3530 67° East 459 528 37,000  Level FlightAware ADS-B
Fri 12:29:07 PM 33.6720 -111.2580 67° East 460 529 37,000  Level FlightAware ADS-B
Fri 12:29:47 PM 33.7040 -111.1650 68° East 459 528 37,000  Level FlightAware ADS-B
Fri 12:30:32 PM 33.7420 -111.0570 67° East 459 528 37,000  Level FlightAware ADS-B
Fri 12:31:12 PM 33.7740 -110.9650 67° East 460 529 37,000  Level FlightAware ADS-B
Fri 12:31:57 PM 33.8110 -110.8590 67° East 459 528 37,000  Level FlightAware ADS-B
Fri 12:32:37 PM 33.8430 -110.7670 67° East 459 528 37,000  Level FlightAware ADS-B
Fri 12:33:17 PM 33.8770 -110.6710 67° East 459 528 37,000  Level FlightAware ADS-B
Fri 12:34:02 PM 33.9130 -110.5670 67° East 459 528 37,000  Level FlightAware ADS-B
Fri 12:34:42 PM 33.9460 -110.4690 68° East 459 528 37,000  Level FlightAware ADS-B
Fri 12:35:22 PM 33.9780 -110.3770 67° East 458 527 37,000  Level FlightAware ADS-B
Fri 12:36:07 PM 34.0120 -110.2750 68° East 458 527 37,000  Level FlightAware ADS-B
Fri 12:36:42 PM 34.0390 -110.1990 67° East 458 527 37,000  Level FlightAware ADS-B
Fri 12:37:32 PM 34.0830 -110.0690 68° East 459 528 37,000  Level FlightAware ADS-B
Fri 12:38:12 PM 34.1150 -109.9750 68° East 458 527 37,000  Level FlightAware ADS-B
Fri 12:38:57 PM 34.1490 -109.8730 68° East 458 527 37,000  Level FlightAware ADS-B
Fri 12:39:32 PM 34.1760 -109.7970 67° East 458 527 37,000  Level FlightAware ADS-B
Fri 12:40:12 PM 34.2040 -109.7170 67° East 458 527 37,000  Level FlightAware ADS-B
Fri 12:40:52 PM 34.2320 -109.6370 67° East 458 527 37,000  Level FlightAware ADS-B
Fri 12:41:42 PM 34.2670 -109.5360 67° East 458 527 37,000  Level FlightAware ADS-B
Fri 12:42:22 PM 34.2950 -109.4560 67° East 458 527 37,000  Level FlightAware ADS-B
Fri 12:43:02 PM 34.3230 -109.3760 67° East 458 527 37,000  Level FlightAware ADS-B
Fri 12:43:42 PM 34.3520 -109.2950 67° East 458 527 37,000  Level FlightAware ADS-B
Fri 12:44:32 PM 34.3870 -109.1950 67° East 458 527 37,000  Level FlightAware ADS-B
Fri 12:45:12 PM 34.4150 -109.1150 67° East 458 527 37,000  Level FlightAware ADS-B
Fri 12:45:52 PM 34.3900 -108.8600 97° East 461 531 37,000  Level FlightAware ADS-B
Fri 12:46:37 PM 34.3890 -108.7490 91° East 462 532 37,000  Level FlightAware ADS-B
Fri 12:47:12 PM 34.3880 -108.6630 91° East 462 532 37,000  Level FlightAware ADS-B
Fri 12:48:02 PM 34.3870 -108.5360 91° East 463 533 37,000  Level FlightAware ADS-B
Fri 12:48:42 PM 34.3850 -108.4230 91° East 464 534 37,000  Level FlightAware ADS-B
Fri 12:49:27 PM 34.3840 -108.3040 91° East 465 535 37,000  Level FlightAware ADS-B
Fri 12:50:07 PM 34.3830 -108.2040 91° East 465 535 37,000  Level FlightAware ADS-B
Fri 12:50:52 PM 34.3810 -108.0870 91° East 466 536 37,000  Level FlightAware ADS-B
Fri 12:51:32 PM 34.3800 -107.9830 91° East 467 537 37,000  Level FlightAware ADS-B
Fri 12:52:12 PM 34.3780 -107.8780 91° East 467 537 37,000  Level FlightAware ADS-B
Fri 12:52:57 PM 34.3770 -107.7590 91° East 467 537 37,000  Level FlightAware ADS-B
Fri 12:53:37 PM 34.3750 -107.6530 91° East 468 539 37,000  Level FlightAware ADS-B
Fri 12:54:17 PM 34.3730 -107.5490 91° East 468 539 37,000  Level FlightAware ADS-B
Fri 12:55:02 PM 34.3710 -107.4320 91° East 468 539 37,000  Level FlightAware ADS-B
Fri 12:55:42 PM 34.3700 -107.3290 91° East 468 539 37,000  Level FlightAware ADS-B
Fri 12:56:27 PM 34.3670 -107.2080 92° East 469 540 37,000  Level FlightAware ADS-B
Fri 12:57:07 PM 34.3650 -107.1080 91° East 470 541 37,000  Level FlightAware ADS-B
Fri 12:57:47 PM 34.3630 -106.9970 91° East 471 542 37,000  Level FlightAware ADS-B
Fri 12:58:27 PM 34.3610 -106.8920 91° East 471 542 37,000  Level FlightAware ADS-B
Fri 12:59:22 PM 34.3580 -106.7500 91° East 473 544 37,000  Level FlightAware ADS-B
Fri 01:00:12 PM 34.3550 -106.6200 92° East 473 544 37,000  Level FlightAware ADS-B
Fri 01:00:57 PM 34.3530 -106.5040 91° East 473 544 37,000  Level FlightAware ADS-B
Fri 01:01:47 PM 34.3490 -106.3640 92° East 475 547 37,000  Level FlightAware ADS-B
Fri 01:02:32 PM 34.3470 -106.2480 91° East 476 548 37,000  Level FlightAware ADS-B
Fri 01:03:12 PM 34.3440 -106.1420 92° East 477 549 37,000  Level FlightAware ADS-B
Fri 01:03:52 PM 34.3410 -106.0340 92° East 478 550 37,000  Level FlightAware ADS-B
Fri 01:04:37 PM 34.3390 -105.9200 91° East 478 550 37,000  Level FlightAware ADS-B
Fri 01:05:27 PM 34.3340 -105.7880 93° East 479 551 37,000  Level FlightAware ADS-B
Fri 01:06:27 PM 34.3320 -105.6320 91° East 480 552 37,000  Level FlightAware ADS-B
Fri 01:07:07 PM 34.3300 -105.5400 91° East 480 552 37,000  Level FlightAware ADS-B
Fri 01:07:47 PM 34.3290 -105.4490 91° East 480 552 37,000  Level FlightAware ADS-B
Fri 01:08:27 PM 34.3280 -105.3570 91° East 480 552 37,000  Level FlightAware ADS-B
Fri 01:09:17 PM 34.3260 -105.2430 91° East 480 552 37,000  Level FlightAware ADS-B
Fri 01:09:57 PM 34.3250 -105.1520 91° East 480 552 37,000  Level FlightAware ADS-B
Fri 01:10:37 PM 34.3230 -105.0600 91° East 480 552 37,000  Level FlightAware ADS-B
Fri 01:11:17 PM 34.3220 -104.9690 91° East 480 552 37,000  Level FlightAware ADS-B
Fri 01:11:57 PM 34.3210 -104.8770 91° East 480 552 37,000  Level FlightAware ADS-B
Fri 01:12:47 PM 34.3190 -104.7630 91° East 480 552 37,000  Level FlightAware ADS-B
Fri 01:13:27 PM 34.3180 -104.6720 91° East 480 552 37,000  Level FlightAware ADS-B
Fri 01:14:07 PM 34.3160 -104.5800 91° East 480 552 37,000  Level FlightAware ADS-B
Fri 01:14:47 PM 34.3150 -104.4890 91° East 480 552 37,000  Level FlightAware ADS-B
Fri 01:15:27 PM 34.3140 -104.3980 91° East 480 552 37,000 291 Level FlightAware ADS-B
Fri 01:16:30 PM 34.4511 -103.9939 91° East 491 565 37,500 672 Climbing Albuquerque Center
Fri 01:17:32 PM 34.4594 -103.8022 87° East 488 562 38,400 484 Climbing Albuquerque Center
Fri 01:19:36 PM 34.4725 -103.4736 87° East 487 560 39,000 194 Climbing Albuquerque Center
Fri 01:20:38 PM 34.4786 -103.3081 87° East 488 562 39,000  Level Albuquerque Center
Fri 01:21:40 PM 34.4844 -103.1453 87° East 485 558 39,000  Level Albuquerque Center
Fri 01:22:43 PM 34.4906 -102.9733 87° East 484 557 39,000  Level Albuquerque Center
Fri 01:23:44 PM 34.4914 -102.8061 90° East 482 555 39,000  Level Albuquerque Center
Fri 01:24:46 PM 34.4769 -102.6514 96° East 481 554 39,000  Level Albuquerque Center
Fri 01:25:48 PM 34.4558 -102.4586 98° East 483 556 39,000  Level Albuquerque Center
Fri 01:26:51 PM 34.4386 -102.2992 97° East 481 554 39,000  Level Albuquerque Center
Fri 01:27:53 PM 34.4222 -102.1389 97° East 482 555 39,000  Level Albuquerque Center
Fri 01:28:55 PM 34.4053 -101.9781 97° East 484 557 39,000  Level Albuquerque Center
Fri 01:29:57 PM 34.3869 -101.8153 98° East 488 562 39,000  Level Albuquerque Center
Fri 01:30:59 PM 34.3689 -101.6514 98° East 492 566 39,000  Level Albuquerque Center
Fri 01:32:01 PM 34.3458 -101.4556 98° East 492 566 39,000  Level Fort Worth Center
Fri 01:33:01 PM 34.3281 -101.2886 97° East 487 560 39,000  Level Fort Worth Center
Fri 01:34:01 PM 34.3081 -101.1219 98° East 487 560 39,000  Level Fort Worth Center
Fri 01:35:01 PM 34.2878 -100.9575 98° East 487 560 39,000  Level Fort Worth Center
Fri 01:36:01 PM 34.2694 -100.7911 98° East 492 566 39,000  Level Fort Worth Center
Fri 01:37:01 PM 34.2489 -100.6244 98° East 492 566 39,000 -1,024 Level Fort Worth Center
Fri 01:42:22 PM 34.3850 -99.7630 98° East 487 560 32,500 -1,098 Descending FlightAware ADS-B
Fri 01:43:07 PM 34.4130 -99.6630 71° East 484 557 32,300 -2,291 Descending FlightAware ADS-B
Fri 01:43:17 PM 34.4040 -99.6170 103° East 477 549 30,400 -2,073 Descending FlightAware ADS-B
Fri 01:44:02 PM 34.4100 -99.5120 86° East 477 549 30,400  Level FlightAware ADS-B
Fri 01:44:42 PM 34.4150 -99.4220 86° East 477 549 30,400 -3,075 Level FlightAware ADS-B
Fri 01:45:22 PM 34.4210 -99.3040 86° East 445 512 26,300 -2,894 Descending FlightAware ADS-B
Fri 01:46:07 PM 34.4120 -99.2010 96° East 445 512 26,300 -1,533 Level FlightAware ADS-B
Fri 01:46:52 PM 34.3310 -99.1120 138° Southeast 421 484 24,000 -1,624 Descending FlightAware ADS-B
Fri 01:47:32 PM 34.2860 -99.0420 128° Southeast 426 490 24,000  Level FlightAware ADS-B
Fri 01:48:12 PM 34.2360 -98.9660 128° Southeast 434 499 24,000  Level FlightAware ADS-B
Fri 01:48:47 PM 34.1960 -98.9020 127° Southeast 434 499 24,000  Level FlightAware ADS-B
Fri 01:49:37 PM 34.1290 -98.8000 128° Southeast 431 496 24,000  Level FlightAware ADS-B
Fri 01:50:17 PM 34.0800 -98.7250 128° Southeast 432 497 24,000  Level FlightAware ADS-B
Fri 01:51:02 PM 34.0250 -98.6390 128° Southeast 433 498 24,000  Level FlightAware ADS-B
Fri 01:51:42 PM 33.9760 -98.5640 128° Southeast 433 498 24,000  Level FlightAware ADS-B
Fri 01:52:27 PM 33.9200 -98.4800 129° Southeast 431 496 24,000  Level FlightAware ADS-B
Fri 01:53:22 PM 33.8590 -98.3860 128° Southeast 431 496 24,000  Level FlightAware ADS-B
Fri 01:53:57 PM 33.8100 -98.3110 128° Southeast 423 487 24,000  Level FlightAware ADS-B
Fri 01:54:42 PM 33.7610 -98.2370 129° Southeast 423 487 24,000 -900 Level FlightAware ADS-B
Fri 01:55:17 PM 33.7130 -98.1640 128° Southeast 413 475 22,800 -1,380 Descending FlightAware ADS-B
Fri 01:56:22 PM 33.6420 -98.0570 129° Southeast 405 466 21,700 -629 Descending FlightAware ADS-B
Fri 01:57:02 PM 33.6030 -97.9960 127° Southeast 405 466 21,700 -2,400 Level FlightAware ADS-B
Fri 01:57:47 PM 33.5000 -97.9850 175° South 368 423 18,300 -2,589 Descending FlightAware ADS-B
Fri 01:58:37 PM 33.4300 -97.9440 154° Southeast 368 423 17,600 -420 Descending FlightAware ADS-B
Fri 01:59:27 PM 33.3660 -97.9020 151° Southeast 368 423 17,600  Level FlightAware ADS-B
Fri 02:00:07 PM 33.3160 -97.8690 151° Southeast 368 423 17,600  Level FlightAware ADS-B
Fri 02:00:47 PM 33.2650 -97.8350 151° Southeast 368 423 17,600 -5,455 Level FlightAware ADS-B
Fri 02:01:02 PM 33.3380 -97.6600 63° Northeast 362 417 12,600 -6,100 Descending FlightAware ADS-B
Fri 02:01:47 PM 33.2920 -97.5990 132° Southeast 354 407 11,500 -1,200 Descending FlightAware ADS-B
Fri 02:02:27 PM 33.2420 -97.5410 136° Southeast 337 388 10,900 -375 Descending FlightAware ADS-B
Fri 02:03:07 PM 33.2010 -97.4950 137° Southeast 309 356 11,000 71 Climbing FlightAware ADS-B
Fri 02:03:52 PM 33.1510 -97.4380 136° Southeast 312 359 11,000  Level FlightAware ADS-B
Fri 02:04:32 PM 33.1090 -97.3890 136° Southeast 311 358 11,000  Level FlightAware ADS-B
Fri 02:05:08 PM 33.0714 -97.3454 136° Southeast 314 361 11,000 -77 Level FlightAware ADS-B
Fri 02:05:50 PM 33.0275 -97.2949 136° Southeast 314 361 10,900  Descending FlightAware ADS-B
Fri 02:06:37 PM 32.9810 -97.2410 136° Southeast 309 356 11,000  Climbing FlightAware ADS-B
Fri 02:07:22 PM 32.9340 -97.1880 137° Southeast 299 344 10,900 -150 Descending FlightAware ADS-B
Fri 02:07:57 PM 32.9040 -97.1520 135° Southeast 254 292 10,800 -655 Descending FlightAware ADS-B
Fri 02:08:17 PM 32.8830 -97.1400 154° Southeast 247 284 10,300 -1,440 Descending FlightAware ADS-B
Fri 02:08:47 PM 32.8490 -97.1410 181° South 248 285 9,600 -1,309 Descending FlightAware ADS-B
Fri 02:09:12 PM 32.8200 -97.1420 182° South 242 278 9,100 -1,418 Descending FlightAware ADS-B
Fri 02:09:42 PM 32.7870 -97.1430 181° South 242 278 8,300 -1,636 Descending FlightAware ADS-B
Fri 02:10:07 PM 32.7590 -97.1440 182° South 242 278 7,600 -1,418 Descending FlightAware ADS-B
Fri 02:10:37 PM 32.7240 -97.1450 181° South 251 289 7,000 -800 Descending FlightAware ADS-B
Fri 02:10:52 PM 32.7050 -97.1470 185° South 250 288 7,000  Level FlightAware ADS-B
Fri 02:11:17 PM 32.6770 -97.1480 182° South 249 287 7,000  Level FlightAware ADS-B
Fri 02:11:47 PM 32.6420 -97.1500 183° South 246 283 7,000  Level FlightAware ADS-B
Fri 02:12:12 PM 32.6140 -97.1520 183° South 252 290 7,000 -133 Level FlightAware ADS-B
Fri 02:12:32 PM 32.5950 -97.1530 183° South 249 287 6,900 -764 Descending FlightAware ADS-B
Fri 02:13:07 PM 32.5540 -97.1520 179° South 243 280 6,300 -923 Descending FlightAware ADS-B
Fri 02:13:37 PM 32.5260 -97.1300 146° Southeast 228 262 5,900 -686 Descending FlightAware ADS-B
Fri 02:13:42 PM 32.5240 -97.1280 140° Southeast 227 261 5,900 200 Level FlightAware ADS-B
Fri 02:14:07 PM 32.5130 -97.0990 114° Southeast 217 250 6,000 -120 Climbing FlightAware ADS-B
Fri 02:14:32 PM 32.5160 -97.0690 83° East 215 247 5,800 -873 Descending FlightAware ADS-B
Fri 02:15:02 PM 32.5330 -97.0410 54° Northeast 210 242 5,200 -1,067 Descending FlightAware ADS-B
Fri 02:15:17 PM 32.5450 -97.0330 29° Northeast 208 239 5,000 -400 Descending FlightAware ADS-B
Fri 02:15:47 PM 32.5740 -97.0310 North 200 230 4,900 -109 Descending FlightAware ADS-B
Fri 02:16:12 PM 32.5980 -97.0320 358° North 200 230 4,900 -436 Level FlightAware ADS-B
Fri 02:16:42 PM 32.6240 -97.0330 358° North 200 230 4,500 -873 Descending FlightAware ADS-B
Fri 02:17:07 PM 32.6460 -97.0330 360° North 201 231 4,100 -1,091 Descending FlightAware ADS-B
Fri 02:17:37 PM 32.6750 -97.0330 360° North 200 230 3,500 -1,050 Descending FlightAware ADS-B
Fri 02:17:47 PM 32.6850 -97.0330 360° North 199 229 3,400 -1,050 Descending FlightAware ADS-B
Fri 02:18:17 PM 32.7110 -97.0320 North 194 223 2,800 -1,100 Descending FlightAware ADS-B
Fri 02:18:47 PM 32.7400 -97.0320 360° North 183 211 2,300 -933 Descending FlightAware ADS-B
Fri 02:19:02 PM 32.7500 -97.0320 360° North 179 206 2,100 -800 Descending FlightAware ADS-B

Login

Don't have an account? Register now (free) for customized features, flight alerts, and more!